createdAt,value
2019-03-08T00:00:30.458Z,99478.73
2019-03-08T00:02:56.886Z,99485.80
2019-03-08T00:05:22.883Z,99482.73
2019-03-08T00:07:48.938Z,99481.95
2019-03-08T00:10:15.028Z,99491.96
2019-03-08T00:12:40.860Z,99488.52
2019-03-08T00:15:10.201Z,99484.66
2019-03-08T00:17:36.160Z,99483.28
2019-03-08T00:20:04.916Z,99488.04
2019-03-08T00:22:30.798Z,99494.30
2019-03-08T00:25:00.457Z,99498.40
2019-03-08T00:27:26.590Z,99500.52
2019-03-08T00:29:52.632Z,99507.75
2019-03-08T00:32:18.657Z,99505.70
2019-03-08T00:34:44.636Z,99514.25
2019-03-08T00:37:10.448Z,99520.95
2019-03-08T00:39:36.610Z,99523.48
2019-03-08T00:42:02.733Z,99522.94
2019-03-08T00:44:28.666Z,99525.47
2019-03-08T00:46:54.712Z,99520.95
2019-03-08T00:49:20.615Z,99526.14
2019-03-08T00:51:46.624Z,99527.65
2019-03-08T00:54:12.811Z,99524.20
2019-03-08T00:56:39.785Z,99532.58
2019-03-08T00:59:06.002Z,99535.00
2019-03-08T01:01:31.959Z,99525.19
2019-03-08T01:03:58.005Z,99526.27
2019-03-08T01:06:24.066Z,99528.69
2019-03-08T01:08:50.078Z,99529.29
2019-03-08T01:11:15.936Z,99532.89
2019-03-08T01:13:41.978Z,99536.27
2019-03-08T01:16:08.412Z,99544.58
2019-03-08T01:18:34.276Z,99541.20
2019-03-08T01:21:00.122Z,99541.64
2019-03-08T01:23:26.023Z,99542.42
2019-03-08T01:25:52.003Z,99533.67
2019-03-08T01:28:18.062Z,99537.02
2019-03-08T01:30:44.198Z,99541.11
2019-03-08T01:33:10.459Z,99542.55
2019-03-08T01:35:36.442Z,99556.47
2019-03-08T01:38:02.986Z,99558.95
2019-03-08T01:40:29.058Z,99550.88
2019-03-08T01:42:55.108Z,99550.13
2019-03-08T01:45:21.056Z,99548.77
2019-03-08T01:47:46.895Z,99548.88
2019-03-08T01:50:12.977Z,99556.00
2019-03-08T01:52:39.227Z,99555.95
2019-03-08T01:55:05.467Z,99552.44
2019-03-08T01:57:31.460Z,99552.80
2019-03-08T01:59:57.315Z,99550.78
2019-03-08T02:02:23.248Z,99539.58
2019-03-08T02:04:49.127Z,99543.98
2019-03-08T02:07:15.096Z,99548.39
2019-03-08T02:09:40.973Z,99538.47
2019-03-08T02:12:07.319Z,99543.50
2019-03-08T02:14:33.372Z,99549.31
2019-03-08T02:16:59.468Z,99545.59
2019-03-08T02:19:25.436Z,99539.08
2019-03-08T02:21:51.455Z,99540.34
2019-03-08T02:24:17.352Z,99551.31
2019-03-08T02:26:43.220Z,99548.86
2019-03-08T02:29:09.061Z,99552.13
2019-03-08T02:31:35.175Z,99536.85
2019-03-08T02:34:01.103Z,99543.17
2019-03-08T02:36:27.051Z,99543.28
2019-03-08T02:38:54.929Z,99542.48
2019-03-08T02:41:20.964Z,99545.59
2019-03-08T02:43:47.011Z,99551.34
2019-03-08T02:46:13.267Z,99556.73
2019-03-08T02:48:39.504Z,99562.47
2019-03-08T02:51:05.557Z,99569.66
2019-03-08T02:53:31.552Z,99567.78
2019-03-08T02:55:57.397Z,99577.41
2019-03-08T02:58:23.336Z,99571.91
2019-03-08T03:00:49.306Z,99571.97
2019-03-08T03:03:15.513Z,99576.77
2019-03-08T03:05:41.675Z,99573.40
2019-03-08T03:08:07.707Z,99575.00
2019-03-08T03:10:33.638Z,99574.37
2019-03-08T03:12:59.747Z,99572.69
2019-03-08T03:15:25.580Z,99576.52
2019-03-08T03:17:51.655Z,99575.77
2019-03-08T03:20:17.715Z,99577.82
2019-03-08T03:22:43.666Z,99583.48
2019-03-08T03:25:11.838Z,99572.98
2019-03-08T03:27:41.498Z,99576.20
2019-03-08T03:30:15.088Z,99586.11
2019-03-08T03:32:41.191Z,99586.86
2019-03-08T03:35:07.420Z,99582.81
2019-03-08T03:37:33.412Z,99589.59
2019-03-08T03:39:59.649Z,99580.30
2019-03-08T03:42:25.631Z,99580.41
2019-03-08T03:44:51.740Z,99580.41
2019-03-08T03:47:17.724Z,99593.12
2019-03-08T03:49:45.489Z,99591.69
2019-03-08T03:52:11.364Z,99598.20
2019-03-08T03:54:37.218Z,99602.86
2019-03-08T03:57:03.160Z,99604.13
2019-03-08T03:59:29.463Z,99608.88
2019-03-08T04:01:56.990Z,99615.17
2019-03-08T04:04:22.961Z,99614.40
2019-03-08T04:06:49.119Z,99616.77
2019-03-08T04:09:15.073Z,99616.55
2019-03-08T04:11:41.118Z,99624.22
2019-03-08T04:14:07.183Z,99617.11
2019-03-08T04:16:33.301Z,99622.08
2019-03-08T04:18:59.287Z,99629.36
2019-03-08T04:21:25.241Z,99634.54
2019-03-08T04:23:51.102Z,99636.20
2019-03-08T04:26:17.058Z,99644.38
2019-03-08T04:28:43.046Z,99643.82
2019-03-08T04:31:09.094Z,99634.84
2019-03-08T04:33:34.996Z,99641.30
2019-03-08T04:36:01.418Z,99643.30
2019-03-08T04:38:27.384Z,99645.73
2019-03-08T04:40:53.374Z,99642.96
2019-03-08T04:43:19.199Z,99643.06
2019-03-08T04:45:45.183Z,99650.36
2019-03-08T04:48:11.161Z,99650.11
2019-03-08T04:50:37.096Z,99656.11
2019-03-08T04:53:03.273Z,99659.20
2019-03-08T04:55:29.530Z,99664.55
2019-03-08T04:57:55.444Z,99664.47
2019-03-08T05:00:21.458Z,99668.11
2019-03-08T05:02:47.298Z,99677.65
2019-03-08T05:05:13.451Z,99677.78
2019-03-08T05:07:39.490Z,99675.09
2019-03-08T05:10:08.973Z,99680.66
2019-03-08T05:12:35.052Z,99687.95
2019-03-08T05:15:00.993Z,99690.44
2019-03-08T05:17:26.825Z,99689.34
2019-03-08T05:19:52.699Z,99682.48
2019-03-08T05:22:18.551Z,99700.65
2019-03-08T05:24:44.616Z,99697.57
2019-03-08T05:27:10.554Z,99699.40
2019-03-08T05:29:40.585Z,99698.24
2019-03-08T05:32:06.776Z,99700.16
2019-03-08T05:34:32.648Z,99703.59
2019-03-08T05:36:58.468Z,99706.47
2019-03-08T05:39:24.349Z,99717.06
2019-03-08T05:41:50.313Z,99715.64
2019-03-08T05:44:16.139Z,99717.81
2019-03-08T05:46:42.126Z,99723.78
2019-03-08T05:49:08.069Z,99727.04
2019-03-08T05:51:34.075Z,99732.23
2019-03-08T05:53:59.876Z,99727.53
2019-03-08T05:56:25.853Z,99727.73
2019-03-08T05:58:53.057Z,99732.52
2019-03-08T06:01:18.927Z,99738.66
2019-03-08T06:03:44.871Z,99741.31
2019-03-08T06:06:12.762Z,99751.33
2019-03-08T06:08:38.584Z,99751.02
2019-03-08T06:11:09.872Z,99753.20
2019-03-08T06:13:35.856Z,99759.92
2019-03-08T06:16:02.302Z,99761.16
2019-03-08T06:18:28.152Z,99753.78
2019-03-08T06:20:55.190Z,99764.97
2019-03-08T06:23:21.057Z,99766.02
2019-03-08T06:25:47.013Z,99767.69
2019-03-08T06:28:13.262Z,99770.33
2019-03-08T06:30:39.442Z,99774.84
2019-03-08T06:33:05.378Z,99778.45
2019-03-08T06:35:31.393Z,99776.51
2019-03-08T06:37:57.423Z,99777.20
2019-03-08T06:40:23.462Z,99781.23
2019-03-08T06:42:49.451Z,99781.92
2019-03-08T06:45:16.727Z,99782.40
2019-03-08T06:47:43.124Z,99780.16
2019-03-08T06:50:13.245Z,99791.62
2019-03-08T06:52:39.368Z,99791.55
2019-03-08T06:55:07.448Z,99799.19
2019-03-08T06:57:33.336Z,99797.05
2019-03-08T07:00:01.091Z,99807.80
2019-03-08T07:02:27.112Z,99806.87
2019-03-08T07:04:53.211Z,99813.56
2019-03-08T07:07:19.036Z,99819.23
2019-03-08T07:09:45.102Z,99819.15
2019-03-08T07:12:11.131Z,99826.61
2019-03-08T07:14:36.990Z,99831.17
2019-03-08T07:17:04.705Z,99833.22
2019-03-08T07:19:30.684Z,99839.86
2019-03-08T07:21:58.443Z,99846.69
2019-03-08T07:24:32.425Z,99855.08
2019-03-08T07:27:06.152Z,99853.53
2019-03-08T07:29:50.467Z,99849.84
2019-03-08T07:32:20.136Z,99859.31
2019-03-08T07:34:47.954Z,99858.60
2019-03-08T07:37:24.616Z,99859.28
2019-03-08T07:39:55.469Z,99867.70
2019-03-08T07:42:23.327Z,99867.13
2019-03-08T07:44:51.194Z,99876.08
2019-03-08T07:47:28.433Z,99876.03
2019-03-08T07:49:56.346Z,99878.63
2019-03-08T07:52:24.176Z,99877.76
2019-03-08T07:54:54.658Z,99877.69
2019-03-08T07:57:28.489Z,99882.22
2019-03-08T08:00:05.087Z,99888.24
2019-03-08T08:02:44.905Z,99883.09
2019-03-08T08:05:12.891Z,99893.45
2019-03-08T08:07:46.899Z,99894.69
2019-03-08T08:10:24.078Z,99897.66
2019-03-08T08:12:51.957Z,99895.00
2019-03-08T08:15:31.748Z,99904.30
2019-03-08T08:17:59.483Z,99905.92
2019-03-08T08:20:30.439Z,99906.25
2019-03-08T08:23:07.512Z,99910.41
2019-03-08T08:25:37.970Z,99907.67
2019-03-08T08:28:08.473Z,99901.55
2019-03-08T08:30:53.536Z,99907.95
2019-03-08T08:33:30.281Z,99905.41
2019-03-08T08:35:58.190Z,99909.52
2019-03-08T08:38:35.182Z,99911.00
2019-03-08T08:41:08.821Z,99907.13
2019-03-08T08:43:53.391Z,99912.03
2019-03-08T08:46:23.850Z,99910.48
2019-03-08T08:49:07.011Z,99908.07
2019-03-08T08:51:34.909Z,99904.91
2019-03-08T08:54:14.965Z,99904.55
2019-03-08T08:56:48.755Z,99904.02
2019-03-08T08:59:16.611Z,99902.69
2019-03-08T09:01:44.472Z,99899.23
2019-03-08T09:04:18.443Z,99913.12
2019-03-08T09:06:49.039Z,99917.53
2019-03-08T09:09:22.745Z,99916.89
2019-03-08T09:11:53.798Z,99915.50
2019-03-08T09:14:21.779Z,99911.42
2019-03-08T09:16:49.507Z,99912.58
2019-03-08T09:19:20.169Z,99925.34
2019-03-08T09:21:57.300Z,99921.62
2019-03-08T09:24:31.239Z,99920.03
2019-03-08T09:27:15.915Z,99926.86
2019-03-08T09:29:43.784Z,99929.36
2019-03-08T09:32:14.513Z,99926.01
2019-03-08T09:34:51.549Z,99934.00
2019-03-08T09:37:36.103Z,99940.17
2019-03-08T09:40:19.943Z,99939.02
2019-03-08T09:42:53.527Z,99939.98
2019-03-08T09:45:38.060Z,99949.80
2019-03-08T09:48:08.545Z,99945.43
2019-03-08T09:50:48.317Z,99947.87
2019-03-08T09:53:18.771Z,99948.86
2019-03-08T09:55:52.188Z,99958.99
2019-03-08T09:58:31.977Z,99958.47
2019-03-08T10:01:02.516Z,99957.30
2019-03-08T10:03:30.240Z,99952.24
2019-03-08T10:05:58.191Z,99949.03
2019-03-08T10:08:28.908Z,99949.67
2019-03-08T10:11:05.475Z,99955.13
2019-03-08T10:13:45.790Z,99957.73
2019-03-08T10:16:22.615Z,99958.05
2019-03-08T10:18:56.387Z,99968.91
2019-03-08T10:21:27.109Z,99970.82
2019-03-08T10:23:55.271Z,99961.92
2019-03-08T10:26:26.038Z,99963.77
2019-03-08T10:28:56.503Z,99974.64
2019-03-08T10:31:30.526Z,99972.31
2019-03-08T10:34:10.362Z,99969.66
2019-03-08T10:36:38.291Z,99971.56
2019-03-08T10:39:08.326Z,99978.95
2019-03-08T10:41:54.105Z,99980.52
2019-03-08T10:44:38.916Z,99982.72
2019-03-08T10:47:23.253Z,99981.05
2019-03-08T10:50:09.002Z,99977.00
2019-03-08T10:52:42.982Z,99989.06
2019-03-08T10:55:27.329Z,99982.59
2019-03-08T10:58:04.133Z,99988.84
2019-03-08T11:00:32.086Z,99985.61
2019-03-08T11:02:59.932Z,99992.20
2019-03-08T11:05:36.987Z,99995.65
2019-03-08T11:08:08.996Z,99993.78
2019-03-08T11:10:42.830Z,99987.02
2019-03-08T11:13:13.304Z,99990.65
2019-03-08T11:15:43.994Z,99990.00
2019-03-08T11:18:24.044Z,99989.98
2019-03-08T11:20:51.986Z,99986.45
2019-03-08T11:23:20.057Z,99991.67
2019-03-08T11:25:56.806Z,99996.58
2019-03-08T11:28:24.593Z,99991.50
2019-03-08T11:30:55.383Z,99993.24
2019-03-08T11:33:26.335Z,99993.05
2019-03-08T11:35:56.816Z,99991.80
2019-03-08T11:38:27.612Z,99986.61
2019-03-08T11:41:01.346Z,99977.70
2019-03-08T11:43:29.229Z,99974.92
2019-03-08T11:45:56.970Z,99975.11
2019-03-08T11:48:24.705Z,99974.97
2019-03-08T11:51:09.396Z,99984.33
2019-03-08T11:53:56.039Z,99978.82
2019-03-08T11:56:22.030Z,99977.09
2019-03-08T11:58:58.792Z,99973.77
2019-03-08T12:01:32.328Z,99984.91
2019-03-08T12:04:12.177Z,99973.46
2019-03-08T12:06:39.990Z,99981.40
2019-03-08T12:09:11.526Z,99973.58
2019-03-08T12:11:45.040Z,99979.24
2019-03-08T12:14:13.002Z,99971.73
2019-03-08T12:16:46.519Z,99973.88
2019-03-08T12:19:17.535Z,99972.57
2019-03-08T12:21:51.372Z,99970.37
2019-03-08T12:24:25.136Z,99969.61
2019-03-08T12:26:58.680Z,99969.69
2019-03-08T12:29:42.367Z,99961.19
2019-03-08T12:32:23.555Z,99963.45
2019-03-08T12:35:08.516Z,99960.23
2019-03-08T12:37:45.220Z,99951.39
2019-03-08T12:40:22.491Z,99968.59
2019-03-08T12:43:08.094Z,99947.11
2019-03-08T12:45:40.705Z,99956.88
2019-03-08T12:48:08.443Z,99965.25
2019-03-08T12:51:00.113Z,99960.99
2019-03-08T12:53:52.439Z,99965.70
2019-03-08T12:56:26.236Z,99975.48
2019-03-08T12:59:01.865Z,99975.22
2019-03-08T13:01:35.956Z,99963.63
2019-03-08T13:04:08.357Z,99968.05
2019-03-08T13:06:38.978Z,99963.89
2019-03-08T13:09:18.873Z,99973.66
2019-03-08T13:11:44.801Z,99974.83
2019-03-08T13:14:10.655Z,99965.83
2019-03-08T13:16:36.883Z,99954.22
2019-03-08T13:19:02.941Z,99945.20
2019-03-08T13:21:29.039Z,99927.77
2019-03-08T13:23:54.942Z,99932.44
2019-03-08T13:26:20.774Z,99930.80
2019-03-08T13:28:46.597Z,99926.46
2019-03-08T13:31:12.716Z,99922.27
2019-03-08T13:33:38.538Z,99917.67
2019-03-08T13:36:04.484Z,99912.34
2019-03-08T13:38:30.566Z,99906.25
2019-03-08T13:40:56.505Z,99899.09
2019-03-08T13:43:22.442Z,99903.44
2019-03-08T13:45:48.346Z,99907.22
2019-03-08T13:48:14.287Z,99902.56
2019-03-08T13:50:40.295Z,99901.98
2019-03-08T13:53:06.126Z,99906.14
2019-03-08T13:55:31.969Z,99885.89
2019-03-08T13:57:58.026Z,99895.84
2019-03-08T14:00:24.059Z,99888.92
2019-03-08T14:02:50.387Z,99897.73
2019-03-08T14:05:16.598Z,99887.98
2019-03-08T14:07:42.892Z,99892.07
2019-03-08T14:10:18.080Z,99888.77
2019-03-08T14:12:43.918Z,99892.58
2019-03-08T14:15:13.289Z,99887.36
2019-03-08T14:17:39.257Z,99888.78
2019-03-08T14:20:25.932Z,99893.97
2019-03-08T14:22:51.910Z,99901.00
2019-03-08T14:25:17.966Z,99890.95
2019-03-08T14:27:44.021Z,99883.29
2019-03-08T14:30:15.924Z,99886.05
2019-03-08T14:32:42.065Z,99887.34
2019-03-08T14:35:08.107Z,99886.39
2019-03-08T14:37:34.190Z,99887.61
2019-03-08T14:40:00.283Z,99881.64
2019-03-08T14:42:28.118Z,99887.67
2019-03-08T14:44:58.885Z,99885.05
2019-03-08T14:47:33.363Z,99887.77
2019-03-08T14:50:00.311Z,99880.45
2019-03-08T14:52:26.518Z,99876.98
2019-03-08T14:54:52.578Z,99876.89
2019-03-08T14:57:26.915Z,99892.05
2019-03-08T14:59:49.276Z,99886.17
2019-03-08T15:02:14.713Z,99889.50
2019-03-08T15:04:40.925Z,99884.81
2019-03-08T15:07:07.270Z,99880.69
2019-03-08T15:09:33.103Z,99893.86
2019-03-08T15:11:59.590Z,99881.31
2019-03-08T15:14:26.453Z,99876.05
2019-03-08T15:16:52.395Z,99877.69
2019-03-08T15:19:18.610Z,99875.95
2019-03-08T15:21:48.304Z,99875.53
2019-03-08T15:24:12.409Z,99885.81
2019-03-08T15:26:38.367Z,99883.92
2019-03-08T15:29:04.284Z,99883.56
2019-03-08T15:31:30.153Z,99896.23
2019-03-08T15:33:56.131Z,99888.36
2019-03-08T15:36:22.271Z,99881.13
2019-03-08T15:38:48.105Z,99893.64
2019-03-08T15:41:21.436Z,99892.06
2019-03-08T15:43:47.026Z,99895.20
2019-03-08T15:46:13.745Z,99894.91
2019-03-08T15:48:39.687Z,99891.28
2019-03-08T15:51:05.923Z,99892.63
2019-03-08T15:53:31.858Z,99899.75
2019-03-08T15:55:57.811Z,99902.34
2019-03-08T15:58:24.713Z,99907.36
2019-03-08T16:00:50.602Z,99900.06
2019-03-08T16:03:16.420Z,99911.21
2019-03-08T16:05:42.378Z,99906.91
2019-03-08T16:08:08.872Z,99907.02
2019-03-08T16:10:34.827Z,99911.25
2019-03-08T16:13:02.706Z,99913.34
2019-03-08T16:15:28.867Z,99918.94
2019-03-08T16:17:54.808Z,99913.72
2019-03-08T16:20:21.339Z,99917.17
2019-03-08T16:22:47.425Z,99924.52
2019-03-08T16:25:14.365Z,99913.34
2019-03-08T16:27:40.287Z,99918.22
2019-03-08T16:30:10.704Z,99914.03
2019-03-08T16:32:38.431Z,99922.34
2019-03-08T16:35:04.760Z,99928.34
2019-03-08T16:37:38.725Z,99924.87
2019-03-08T16:40:09.436Z,99922.42
2019-03-08T16:42:37.365Z,99939.44
2019-03-08T16:45:06.941Z,99934.58
2019-03-08T16:47:34.811Z,99940.86
2019-03-08T16:50:11.596Z,99939.61
2019-03-08T16:52:45.806Z,99944.65
2019-03-08T16:55:19.331Z,99943.50
2019-03-08T16:57:52.866Z,99941.93
2019-03-08T17:00:20.634Z,99950.24
2019-03-08T17:02:48.392Z,99949.78
2019-03-08T17:05:34.655Z,99949.07
2019-03-08T17:08:11.624Z,99952.59
2019-03-08T17:10:45.758Z,99952.20
2019-03-08T17:13:30.594Z,99963.37
2019-03-08T17:16:01.080Z,99963.48
2019-03-08T17:18:40.707Z,99963.00
2019-03-08T17:21:26.493Z,99969.67
2019-03-08T17:24:11.113Z,99968.19
2019-03-08T17:26:44.597Z,99971.73
2019-03-08T17:29:12.471Z,99975.95
2019-03-08T17:31:49.241Z,99976.30
2019-03-08T17:34:22.962Z,99979.57
2019-03-08T17:36:53.499Z,99983.79
2019-03-08T17:39:21.391Z,99976.74
2019-03-08T17:41:51.895Z,99976.70
2019-03-08T17:44:19.673Z,99977.55
2019-03-08T17:46:53.683Z,99981.27
2019-03-08T17:49:39.599Z,99988.41
2019-03-08T17:52:10.058Z,99995.55
2019-03-08T17:54:45.453Z,99999.71
2019-03-08T17:57:16.634Z,99999.97
2019-03-08T17:59:56.440Z,100005.45
2019-03-08T18:02:33.123Z,100006.30
2019-03-08T18:05:07.155Z,100014.80
2019-03-08T18:07:37.866Z,100011.98
2019-03-08T18:10:12.539Z,100019.74
2019-03-08T18:12:49.172Z,100028.14
2019-03-08T18:15:22.724Z,100023.63
2019-03-08T18:18:02.457Z,100027.62
2019-03-08T18:20:30.238Z,100030.41
2019-03-08T18:23:14.683Z,100034.56
2019-03-08T18:26:00.612Z,100036.81
2019-03-08T18:28:40.609Z,100036.69
2019-03-08T18:31:08.605Z,100051.11
2019-03-08T18:33:42.444Z,100052.13
2019-03-08T18:36:10.399Z,100054.84
2019-03-08T18:38:41.314Z,100052.44
2019-03-08T18:41:25.933Z,100060.30
2019-03-08T18:43:53.869Z,100059.17
2019-03-08T18:46:31.480Z,100061.39
2019-03-08T18:48:59.418Z,100071.84
2019-03-08T18:51:35.949Z,100080.78
2019-03-08T18:54:03.821Z,100082.36
2019-03-08T18:56:31.620Z,100083.08
2019-03-08T18:59:02.390Z,100085.74
2019-03-08T19:01:30.127Z,100088.62
2019-03-08T19:03:58.143Z,100087.73
2019-03-08T19:06:26.735Z,100094.23
2019-03-08T19:09:06.481Z,100093.89
2019-03-08T19:11:43.744Z,100099.61
2019-03-08T19:14:28.391Z,100107.53
2019-03-08T19:17:05.125Z,100107.87
2019-03-08T19:19:48.444Z,100106.39
2019-03-08T19:22:26.073Z,100098.86
2019-03-08T19:25:04.246Z,100102.61
2019-03-08T19:27:50.071Z,100116.17
2019-03-08T19:30:34.458Z,100107.22
2019-03-08T19:33:05.665Z,100114.47
2019-03-08T19:35:39.320Z,100115.41
2019-03-08T19:38:15.909Z,100116.92
2019-03-08T19:40:43.692Z,100121.53
2019-03-08T19:43:20.476Z,100120.62
2019-03-08T19:46:00.325Z,100117.89
2019-03-08T19:48:54.760Z,100120.53
2019-03-08T19:51:31.339Z,100124.98
2019-03-08T19:54:01.822Z,100132.28
2019-03-08T19:56:29.595Z,100129.91
2019-03-08T19:59:13.956Z,100134.50
2019-03-08T20:01:41.831Z,100139.87
2019-03-08T20:04:15.610Z,100141.13
2019-03-08T20:06:43.611Z,100139.97
2019-03-08T20:09:27.921Z,100141.50
2019-03-08T20:11:59.977Z,100159.66
2019-03-08T20:14:46.087Z,100156.39
2019-03-08T20:17:19.834Z,100156.23
2019-03-08T20:19:53.691Z,100157.47
2019-03-08T20:22:26.213Z,100164.09
2019-03-08T20:25:03.158Z,100175.78
2019-03-08T20:27:47.641Z,100184.80
2019-03-08T20:30:18.096Z,100183.77
2019-03-08T20:33:02.482Z,100187.33
2019-03-08T20:35:30.582Z,100194.68
2019-03-08T20:37:58.461Z,100191.64
2019-03-08T20:40:44.325Z,100196.34
2019-03-08T20:43:15.039Z,100200.05
2019-03-08T20:46:00.938Z,100197.21
2019-03-08T20:48:27.067Z,100198.33
2019-03-08T20:50:53.187Z,100204.37
2019-03-08T20:53:19.224Z,100203.34
2019-03-08T20:55:45.235Z,100208.94
2019-03-08T20:58:11.184Z,100212.22
2019-03-08T21:00:37.026Z,100219.95
2019-03-08T21:03:03.109Z,100222.16
2019-03-08T21:05:29.001Z,100222.16
2019-03-08T21:07:55.070Z,100221.23
2019-03-08T21:10:21.164Z,100231.88
2019-03-08T21:12:46.989Z,100232.49
2019-03-08T21:15:13.326Z,100231.33
2019-03-08T21:17:39.323Z,100236.70
2019-03-08T21:20:10.451Z,100239.66
2019-03-08T21:22:36.648Z,100243.13
2019-03-08T21:25:05.842Z,100244.52
2019-03-08T21:27:31.870Z,100245.72
2019-03-08T21:29:57.700Z,100247.98
2019-03-08T21:32:23.572Z,100250.45
2019-03-08T21:34:49.528Z,100253.56
2019-03-08T21:37:15.569Z,100254.89
2019-03-08T21:39:41.416Z,100256.94
2019-03-08T21:42:07.244Z,100247.34
2019-03-08T21:44:33.336Z,100253.72
2019-03-08T21:46:59.200Z,100255.76
2019-03-08T21:49:25.191Z,100257.86
2019-03-08T21:51:51.150Z,100255.64
2019-03-08T21:54:17.110Z,100259.47
2019-03-08T21:56:43.001Z,100259.36
2019-03-08T21:59:08.859Z,100251.59
2019-03-08T22:01:34.683Z,100252.41
2019-03-08T22:04:02.642Z,100252.19
2019-03-08T22:06:28.446Z,100252.86
2019-03-08T22:08:58.976Z,100255.62
2019-03-08T22:11:27.113Z,100253.05
2019-03-08T22:13:52.933Z,100251.03
2019-03-08T22:16:18.939Z,100258.54
2019-03-08T22:18:44.816Z,100261.45
2019-03-08T22:21:10.790Z,100260.59
2019-03-08T22:23:36.794Z,100258.21
2019-03-08T22:26:02.907Z,100256.55
2019-03-08T22:28:30.049Z,100254.20
2019-03-08T22:30:56.142Z,100256.09
2019-03-08T22:33:22.034Z,100255.33
2019-03-08T22:35:47.888Z,100247.95
2019-03-08T22:38:13.719Z,100247.69
2019-03-08T22:40:39.850Z,100242.62
2019-03-08T22:43:05.702Z,100239.22
2019-03-08T22:45:31.566Z,100233.42
2019-03-08T22:47:57.489Z,100218.83
2019-03-08T22:50:23.363Z,100218.01
2019-03-08T22:52:49.384Z,100228.98
2019-03-08T22:55:15.529Z,100226.77
2019-03-08T22:57:41.743Z,100227.25
2019-03-08T23:00:25.103Z,100217.95
2019-03-08T23:02:51.147Z,100220.93
2019-03-08T23:05:17.286Z,100219.45
2019-03-08T23:07:43.381Z,100217.86
2019-03-08T23:10:10.149Z,100224.08
2019-03-08T23:12:35.985Z,100230.59
2019-03-08T23:15:03.901Z,100238.35
2019-03-08T23:17:29.926Z,100252.99
2019-03-08T23:19:55.776Z,100257.27
2019-03-08T23:22:21.768Z,100262.92
2019-03-08T23:24:47.713Z,100263.72
2019-03-08T23:27:15.473Z,100265.02
2019-03-08T23:29:43.250Z,100263.56
2019-03-08T23:32:11.008Z,100274.51
2019-03-08T23:34:36.970Z,100264.45
2019-03-08T23:37:02.901Z,100268.42
2019-03-08T23:39:28.841Z,100269.59
2019-03-08T23:41:55.417Z,100269.13
2019-03-08T23:44:21.251Z,100279.83
2019-03-08T23:46:47.344Z,100272.36
2019-03-08T23:49:13.526Z,100277.86
2019-03-08T23:51:39.385Z,100276.42
2019-03-08T23:54:05.306Z,100274.47
2019-03-08T23:56:31.161Z,100262.17
2019-03-08T23:58:56.979Z,100260.42
